Time;durP1;ratioP1;P1;durP2;ratioP2;P2;SDS_P1;SDS_P2;PMS_P1;PMS_P2;Temp;Humidity;BMP_temperature;BMP_pressure;BME280_temperature;BME280_humidity;BME280_pressure;Samples;Min_cycle;Max_cycle;Signal;HPM_P1;HPM_P2
2022/07/06 00:00:03;;;;;;;4.93;1.50;;;18.90;99.90;;;;;;5073452;28;20048;-86
2022/07/06 00:02:32;;;;;;;3.55;1.58;;;18.90;99.90;;;;;;5071986;28;20064;-87
2022/07/06 00:05:00;;;;;;;8.10;2.58;;;18.90;99.90;;;;;;5070873;28;20091;-87
2022/07/06 00:07:30;;;;;;;5.93;2.30;;;19.00;99.90;;;;;;5037226;28;20052;-86
2022/07/06 00:09:58;;;;;;;10.43;1.80;;;19.00;99.90;;;;;;5054344;28;20055;-86
2022/07/06 00:12:25;;;;;;;3.60;1.60;;;19.00;99.90;;;;;;5036452;28;20055;-84
2022/07/06 00:14:53;;;;;;;23.05;3.60;;;18.90;99.90;;;;;;5037783;28;20144;-86
2022/07/06 00:17:21;;;;;;;29.10;3.40;;;18.90;99.90;;;;;;5076515;28;20045;-86
2022/07/06 00:19:48;;;;;;;50.08;5.43;;;18.80;99.90;;;;;;5060298;28;20052;-85
2022/07/06 00:22:16;;;;;;;55.83;6.05;;;18.80;99.90;;;;;;5073076;28;20043;-86
2022/07/06 00:24:45;;;;;;;44.92;5.47;;;18.70;99.90;;;;;;5073620;28;20061;-82
2022/07/06 00:27:13;;;;;;;57.03;5.97;;;18.70;99.90;;;;;;5071604;28;20151;-87
2022/07/06 00:29:43;;;;;;;34.72;4.60;;;18.60;99.90;;;;;;5053474;28;20076;-84
2022/07/06 00:32:11;;;;;;;43.38;4.95;;;18.60;99.90;;;;;;5036877;28;20467;-85
2022/07/06 00:34:40;;;;;;;37.20;3.85;;;18.60;99.90;;;;;;5037679;28;20110;-86
2022/07/06 00:37:07;;;;;;;25.98;4.00;;;18.60;99.90;;;;;;5071235;28;20504;-85
2022/07/06 00:39:35;;;;;;;52.65;5.93;;;18.60;99.90;;;;;;5035729;28;20082;-84
2022/07/06 00:42:04;;;;;;;59.50;6.00;;;18.50;99.90;;;;;;5053312;28;20048;-86
2022/07/06 00:44:33;;;;;;;61.22;9.13;;;18.50;99.90;;;;;;5071978;28;20045;-86
2022/07/06 00:47:00;;;;;;;59.50;6.80;;;18.50;99.90;;;;;;5053604;28;20048;-86
2022/07/06 00:52:13;;;;;;;68.30;7.47;;;18.50;99.90;;;;;;5053932;28;20060;-85
2022/07/06 00:54:42;;;;;;;64.15;7.70;;;18.50;99.90;;;;;;5072448;28;20053;-86
2022/07/06 00:57:12;;;;;;;40.85;5.60;;;18.40;99.90;;;;;;5057750;28;20402;-83
2022/07/06 00:59:40;;;;;;;17.98;4.35;;;18.40;99.90;;;;;;5057610;28;20044;-86
2022/07/06 01:02:07;;;;;;;12.30;3.00;;;18.30;99.90;;;;;;5040730;28;20071;-86
2022/07/06 01:04:35;;;;;;;16.08;3.35;;;18.30;99.90;;;;;;5056504;28;20588;-84
2022/07/06 01:07:03;;;;;;;19.40;3.03;;;18.30;99.90;;;;;;5056607;28;20048;-85
2022/07/06 01:09:30;;;;;;;26.73;4.72;;;18.20;99.90;;;;;;5076525;28;20167;-88
2022/07/06 01:11:58;;;;;;;8.48;2.72;;;18.20;99.90;;;;;;5058604;28;20098;-87
2022/07/06 01:14:28;;;;;;;12.15;2.55;;;18.10;99.90;;;;;;5076983;28;20044;-84
2022/07/06 01:16:56;;;;;;;12.65;3.00;;;18.10;99.90;;;;;;5075279;28;20044;-86
2022/07/06 01:19:24;;;;;;;6.15;2.33;;;18.10;99.90;;;;;;5058941;28;20491;-84
2022/07/06 01:21:53;;;;;;;7.05;2.17;;;18.10;99.90;;;;;;5076602;28;20045;-87
2022/07/06 01:24:21;;;;;;;5.50;2.08;;;18.10;99.90;;;;;;5060601;28;20072;-84
2022/07/06 01:26:48;;;;;;;4.65;1.92;;;18.10;99.90;;;;;;5060273;28;20044;-84
2022/07/06 01:29:17;;;;;;;5.00;1.70;;;18.00;99.90;;;;;;5056859;28;20232;-85
2022/07/06 01:31:48;;;;;;;5.57;1.98;;;18.00;99.90;;;;;;5056477;28;20052;-86
2022/07/06 01:34:17;;;;;;;2.88;1.95;;;18.10;99.90;;;;;;5039652;28;20044;-86
2022/07/06 01:36:44;;;;;;;8.95;2.28;;;18.10;99.90;;;;;;5056144;28;20534;-85
2022/07/06 01:39:14;;;;;;;2.05;1.73;;;18.10;99.90;;;;;;5039928;28;20403;-87
2022/07/06 01:41:41;;;;;;;7.15;2.10;;;18.00;99.90;;;;;;5055823;28;20471;-82
2022/07/06 01:44:09;;;;;;;5.57;2.30;;;17.90;99.90;;;;;;5075181;28;20052;-85
2022/07/06 01:46:38;;;;;;;6.10;1.92;;;17.90;99.90;;;;;;5039685;28;20052;-84
2022/07/06 01:49:08;;;;;;;4.10;1.63;;;17.90;99.90;;;;;;5039465;28;20044;-85
2022/07/06 01:51:36;;;;;;;5.60;2.17;;;17.90;99.90;;;;;;5057728;28;20496;-85
2022/07/06 01:54:04;;;;;;;3.47;1.70;;;17.80;99.90;;;;;;5055703;28;20106;-85
2022/07/06 01:56:32;;;;;;;4.85;1.70;;;17.80;99.90;;;;;;5073613;28;20048;-85
2022/07/06 01:59:03;;;;;;;6.32;2.25;;;17.90;99.90;;;;;;5075455;28;20052;-85
2022/07/06 02:01:32;;;;;;;7.32;1.83;;;17.90;99.90;;;;;;5056342;28;20048;-83
2022/07/06 02:04:00;;;;;;;7.00;1.80;;;17.90;99.90;;;;;;5039894;28;20071;-86
2022/07/06 02:06:28;;;;;;;2.65;1.48;;;17.90;99.90;;;;;;5039078;28;20075;-87
2022/07/06 02:08:56;;;;;;;6.53;2.55;;;17.90;99.90;;;;;;5056078;28;20581;-87
2022/07/06 02:11:23;;;;;;;3.95;1.90;;;18.00;99.90;;;;;;5040196;28;20065;-85
2022/07/06 02:13:53;;;;;;;6.30;2.35;;;18.00;99.90;;;;;;5040499;28;20080;-84
2022/07/06 02:16:20;;;;;;;6.65;2.30;;;18.00;99.90;;;;;;5058097;28;20144;-85
2022/07/06 02:18:48;;;;;;;6.43;2.60;;;17.90;99.90;;;;;;5041410;28;20048;-84
2022/07/06 02:21:15;;;;;;;4.60;2.50;;;17.90;99.90;;;;;;5073526;28;20060;-87
2022/07/06 02:23:43;;;;;;;10.18;2.50;;;17.90;99.90;;;;;;5038600;28;20044;-87
2022/07/06 02:26:11;;;;;;;7.25;2.55;;;17.80;99.90;;;;;;5041165;28;20054;-85
2022/07/06 02:28:38;;;;;;;11.15;2.85;;;17.80;99.90;;;;;;5074421;28;20052;-83
2022/07/06 02:31:09;;;;;;;11.85;4.25;;;17.70;99.90;;;;;;5038184;28;20556;-83
2022/07/06 02:33:37;;;;;;;18.17;3.80;;;17.70;99.90;;;;;;5055924;28;20118;-84
2022/07/06 02:36:05;;;;;;;18.77;3.58;;;17.60;99.90;;;;;;5056601;28;20056;-85
2022/07/06 02:38:33;;;;;;;22.35;4.50;;;17.60;99.90;;;;;;5038336;28;20075;-83
2022/07/06 02:41:01;;;;;;;17.13;3.63;;;17.60;99.90;;;;;;5037979;28;20393;-82
2022/07/06 02:43:30;;;;;;;19.98;4.68;;;17.60;99.90;;;;;;5054266;28;20063;-83
2022/07/06 02:45:57;;;;;;;24.00;4.07;;;17.70;99.90;;;;;;5037781;28;20110;-82
2022/07/06 02:48:28;;;;;;;21.40;4.50;;;17.70;99.90;;;;;;5054059;28;20060;-84
2022/07/06 02:50:56;;;;;;;23.27;3.90;;;17.70;99.90;;;;;;5054717;28;20052;-85
2022/07/06 02:53:24;;;;;;;18.60;3.92;;;17.70;99.90;;;;;;5038851;28;20140;-84
2022/07/06 02:55:54;;;;;;;25.17;4.85;;;17.70;99.90;;;;;;5054555;28;20052;-84
2022/07/06 02:58:21;;;;;;;21.23;4.88;;;17.70;99.90;;;;;;5054844;28;20155;-85
2022/07/06 03:00:49;;;;;;;21.45;4.10;;;17.70;99.90;;;;;;5054246;28;20135;-84
2022/07/06 03:03:17;;;;;;;9.75;2.83;;;17.80;99.90;;;;;;5054312;28;20110;-84
2022/07/06 03:05:46;;;;;;;9.48;2.78;;;17.80;99.90;;;;;;5037148;28;20048;-83
2022/07/06 03:08:15;;;;;;;10.68;3.13;;;17.80;99.90;;;;;;5071490;28;20139;-84
2022/07/06 03:10:43;;;;;;;7.38;2.58;;;17.90;99.90;;;;;;5037450;28;20049;-84
2022/07/06 03:13:11;;;;;;;7.03;2.17;;;17.90;99.90;;;;;;5037799;28;20048;-86
2022/07/06 03:15:38;;;;;;;6.03;2.75;;;17.80;99.90;;;;;;5056788;28;20366;-86
2022/07/06 03:18:06;;;;;;;10.02;2.88;;;17.90;99.90;;;;;;5040479;28;20113;-85
2022/07/06 03:20:34;;;;;;;6.72;2.85;;;17.90;99.90;;;;;;5037665;28;20047;-86
2022/07/06 03:23:03;;;;;;;6.60;2.90;;;17.80;99.90;;;;;;5071522;28;20337;-85
2022/07/06 03:25:32;;;;;;;7.70;3.22;;;17.80;99.90;;;;;;5054661;28;20071;-86
2022/07/06 03:28:00;;;;;;;13.23;3.20;;;17.80;99.90;;;;;;5054195;28;20608;-85
2022/07/06 03:30:28;;;;;;;10.23;2.90;;;17.80;99.90;;;;;;5053391;28;20106;-84
2022/07/06 03:32:57;;;;;;;9.57;3.10;;;17.80;99.90;;;;;;5037109;28;20049;-85
2022/07/06 03:35:26;;;;;;;5.60;2.67;;;17.80;99.90;;;;;;5037003;28;20048;-86
2022/07/06 03:37:56;;;;;;;5.97;2.30;;;17.90;99.90;;;;;;5036859;28;20049;-86
2022/07/06 03:40:28;;;;;;;7.72;2.70;;;17.90;99.90;;;;;;5053765;28;20044;-85
2022/07/06 03:42:56;;;;;;;9.13;2.60;;;17.90;99.90;;;;;;5038772;28;20198;-84
2022/07/06 03:45:26;;;;;;;7.18;2.90;;;18.00;99.90;;;;;;5039140;28;20047;-85
2022/07/06 03:47:54;;;;;;;8.43;2.78;;;18.00;99.90;;;;;;5073605;28;20346;-84
2022/07/06 03:50:22;;;;;;;9.02;2.28;;;18.00;99.90;;;;;;5038282;28;20052;-83
2022/07/06 03:52:49;;;;;;;10.18;2.40;;;18.00;99.90;;;;;;5038400;28;20047;-84
2022/07/06 03:55:17;;;;;;;5.32;2.33;;;18.10;99.90;;;;;;5038141;28;20082;-84
2022/07/06 03:57:51;;;;;;;5.35;2.50;;;18.10;99.90;;;;;;5055036;28;20052;-84
2022/07/06 04:00:23;;;;;;;7.00;2.35;;;18.10;99.90;;;;;;5055987;28;20072;-84
2022/07/06 04:02:58;;;;;;;5.93;2.22;;;18.20;99.90;;;;;;5073605;28;20064;-83
2022/07/06 04:05:30;;;;;;;6.80;2.70;;;18.20;99.90;;;;;;5038296;28;20111;-85
2022/07/06 04:07:59;;;;;;;3.50;2.00;;;18.20;99.90;;;;;;5053886;28;20059;-85
2022/07/06 04:10:34;;;;;;;7.78;2.20;;;18.30;99.90;;;;;;5053691;28;20495;-85
2022/07/06 04:13:06;;;;;;;5.80;2.13;;;18.30;99.90;;;;;;5054813;28;20063;-85
2022/07/06 04:15:34;;;;;;;2.70;2.40;;;18.30;99.90;;;;;;5053938;28;20091;-86
2022/07/06 04:18:01;;;;;;;4.22;2.17;;;18.40;99.90;;;;;;5056203;28;20500;-86
2022/07/06 04:20:33;;;;;;;5.60;2.45;;;18.40;99.90;;;;;;5055516;28;20052;-84
2022/07/06 04:23:02;;;;;;;4.85;2.05;;;18.40;99.90;;;;;;5053387;28;20047;-85
2022/07/06 04:25:31;;;;;;;5.93;2.10;;;18.40;99.90;;;;;;5037694;28;20045;-84
2022/07/06 04:28:01;;;;;;;6.53;2.00;;;18.40;99.90;;;;;;5054885;28;20130;-84
2022/07/06 04:30:32;;;;;;;8.05;2.55;;;18.50;99.90;;;;;;5074029;28;20056;-84
2022/07/06 04:33:00;;;;;;;3.25;1.58;;;18.50;99.90;;;;;;5041483;28;20118;-83
2022/07/06 04:35:30;;;;;;;4.30;1.77;;;18.50;99.90;;;;;;5078357;28;20478;-84
2022/07/06 04:37:58;;;;;;;8.45;2.10;;;18.60;99.90;;;;;;5057644;28;20040;-85
2022/07/06 04:40:26;;;;;;;4.40;1.80;;;18.60;99.90;;;;;;5040514;28;20068;-83
2022/07/06 04:42:59;;;;;;;6.57;2.17;;;18.50;99.90;;;;;;5044569;28;20075;-83
2022/07/06 04:45:27;;;;;;;4.50;2.22;;;18.60;99.90;;;;;;5058458;28;20079;-87
2022/07/06 04:47:56;;;;;;;6.10;2.03;;;18.70;99.90;;;;;;5058994;28;20051;-86
2022/07/06 04:50:25;;;;;;;7.07;2.13;;;18.80;99.90;;;;;;5057755;28;20076;-87
2022/07/06 04:52:54;;;;;;;7.93;2.38;;;18.80;99.90;;;;;;5041666;28;20052;-86
2022/07/06 04:55:22;;;;;;;6.65;2.17;;;18.90;99.90;;;;;;5057132;28;20094;-85
2022/07/06 04:57:51;;;;;;;7.75;2.90;;;19.00;99.90;;;;;;5056992;28;20646;-86
2022/07/06 05:00:20;;;;;;;8.60;2.53;;;19.10;99.90;;;;;;5040864;28;20586;-83
2022/07/06 05:02:50;;;;;;;7.90;2.38;;;19.10;99.90;;;;;;5041146;28;20037;-84
2022/07/06 05:05:20;;;;;;;3.38;1.75;;;19.20;99.90;;;;;;5058187;28;20486;-83
2022/07/06 05:07:50;;;;;;;7.82;2.45;;;19.30;99.90;;;;;;5076286;28;20507;-85
2022/07/06 05:10:18;;;;;;;7.32;2.95;;;19.30;99.90;;;;;;5057632;28;20049;-87
2022/07/06 05:12:49;;;;;;;7.30;2.65;;;19.30;99.90;;;;;;5084270;28;20055;-89
2022/07/06 05:15:19;;;;;;;5.47;2.38;;;19.30;99.90;;;;;;5061744;28;20524;-85
2022/07/06 05:17:47;;;;;;;6.60;2.75;;;19.40;99.90;;;;;;5085703;28;20056;-84
2022/07/06 05:20:15;;;;;;;7.60;2.72;;;19.30;99.90;;;;;;5061064;28;20068;-83
2022/07/06 05:22:47;;;;;;;5.50;2.13;;;19.40;99.90;;;;;;5061487;28;20577;-84
2022/07/06 05:25:18;;;;;;;8.50;2.58;;;19.50;99.90;;;;;;5060268;28;20045;-82
2022/07/06 05:27:46;;;;;;;4.10;1.67;;;19.60;99.90;;;;;;5059388;28;20071;-82
2022/07/06 05:30:15;;;;;;;6.65;1.50;;;19.70;99.90;;;;;;5057112;28;20056;-86
2022/07/06 05:32:44;;;;;;;5.35;1.70;;;19.80;99.90;;;;;;5062057;28;20058;-85
2022/07/06 05:35:12;;;;;;;4.20;1.38;;;20.10;99.90;;;;;;5063370;28;20131;-85
2022/07/06 05:37:40;;;;;;;3.47;1.52;;;20.30;99.90;;;;;;5058517;28;20044;-84
2022/07/06 05:40:10;;;;;;;3.45;1.48;;;20.40;99.90;;;;;;5056550;28;20056;-83
2022/07/06 05:42:38;;;;;;;2.72;1.55;;;20.60;99.90;;;;;;5056057;28;20048;-82
2022/07/06 05:45:08;;;;;;;5.05;2.00;;;20.70;99.90;;;;;;5074668;28;20393;-83
2022/07/06 05:50:20;;;;;;;4.03;2.10;;;20.90;99.90;;;;;;5026160;28;20057;-82
2022/07/06 05:52:58;;;;;;;6.65;2.38;;;21.10;99.90;;;;;;5058795;28;20060;-82
2022/07/06 05:55:28;;;;;;;8.55;2.22;;;21.50;99.90;;;;;;5039635;28;20048;-84
2022/07/06 05:57:58;;;;;;;8.10;2.28;;;21.50;99.90;;;;;;5039285;28;20048;-83
2022/07/06 06:00:28;;;;;;;7.38;3.17;;;21.70;99.90;;;;;;5039004;28;20052;-84
2022/07/06 06:03:00;;;;;;;4.57;1.73;;;21.60;99.90;;;;;;5055962;28;20544;-85
2022/07/06 06:05:28;;;;;;;5.45;1.50;;;21.70;99.90;;;;;;5038881;28;20047;-83
2022/07/06 06:08:00;;;;;;;;;;;21.90;99.90;;;;;;5055785;28;20040;-84
2022/07/06 06:10:29;;;;;;;4.93;1.35;;;21.70;99.90;;;;;;5072867;28;19924;-85
2022/07/06 06:13:00;;;;;;;2.78;1.20;;;21.70;99.90;;;;;;5058856;28;20056;-83
2022/07/06 06:15:29;;;;;;;3.60;1.60;;;21.70;99.90;;;;;;5075139;28;20627;-83
2022/07/06 06:17:56;;;;;;;7.65;1.70;;;21.90;99.90;;;;;;5055415;28;20522;-83
2022/07/06 06:20:24;;;;;;;3.83;1.15;;;22.60;99.90;;;;;;5073317;28;20075;-82
2022/07/06 06:22:56;;;;;;;5.85;1.70;;;23.30;99.90;;;;;;5073300;28;20072;-83
2022/07/06 06:25:34;;;;;;;3.17;1.60;;;23.40;99.90;;;;;;5073568;28;20052;-84
2022/07/06 06:28:03;;;;;;;6.97;1.92;;;23.30;99.90;;;;;;5074075;28;20469;-84
2022/07/06 06:30:31;;;;;;;2.90;1.30;;;23.00;99.90;;;;;;5055242;28;20121;-83
2022/07/06 06:33:10;;;;;;;3.95;1.48;;;23.40;99.90;;;;;;5055373;28;20419;-84
2022/07/06 06:35:39;;;;;;;2.15;0.80;;;24.30;97.20;;;;;;5074047;28;20067;-83
2022/07/06 06:38:07;;;;;;;3.63;1.33;;;24.90;93.20;;;;;;5039673;28;20079;-83
2022/07/06 06:40:37;;;;;;;3.67;1.00;;;25.50;90.40;;;;;;5073175;28;20417;-83
2022/07/06 06:43:04;;;;;;;4.10;1.10;;;26.00;84.30;;;;;;5074359;28;20080;-84
2022/07/06 06:45:34;;;;;;;1.33;0.98;;;26.40;82.50;;;;;;5054733;28;20058;-88
2022/07/06 06:48:01;;;;;;;3.38;1.20;;;26.70;81.60;;;;;;5061590;28;20052;-89
2022/07/06 06:50:29;;;;;;;1.77;1.00;;;27.10;81.70;;;;;;5081011;28;20036;-89
2022/07/06 06:52:57;;;;;;;3.65;1.20;;;27.60;76.90;;;;;;5061868;28;20056;-89
2022/07/06 06:55:24;;;;;;;1.48;1.00;;;28.20;75.40;;;;;;5063057;28;20151;-89
2022/07/06 06:57:53;;;;;;;1.73;0.55;;;28.60;68.20;;;;;;5079980;28;20071;-88
2022/07/06 07:00:21;;;;;;;1.70;1.10;;;28.50;66.80;;;;;;5044090;28;20040;-88
2022/07/06 07:02:49;;;;;;;2.90;1.10;;;28.00;66.40;;;;;;5060605;28;20056;-88
2022/07/06 07:05:17;;;;;;;2.85;1.00;;;27.50;67.30;;;;;;5063483;28;20056;-87
2022/07/06 07:07:45;;;;;;;2.63;1.00;;;26.90;68.90;;;;;;5062041;28;20105;-86
2022/07/06 07:10:13;;;;;;;3.38;1.67;;;26.30;70.80;;;;;;5062161;28;20094;-89
2022/07/06 07:12:45;;;;;;;5.30;0.93;;;26.90;72.70;;;;;;5061525;28;20044;-88
2022/07/06 07:15:14;;;;;;;2.72;1.33;;;27.70;67.90;;;;;;5078936;28;20076;-90
2022/07/06 07:17:43;;;;;;;5.95;0.98;;;28.50;66.50;;;;;;5042596;28;20056;-84
2022/07/06 07:20:14;;;;;;;5.32;1.25;;;28.20;64.90;;;;;;5077835;28;20056;-89
2022/07/06 07:22:41;;;;;;;4.27;2.30;;;28.70;66.10;;;;;;5080817;28;20151;-90
2022/07/06 07:25:09;;;;;;;12.88;1.20;;;29.40;65.60;;;;;;5081794;28;20291;-88
2022/07/06 07:27:38;;;;;;;7.47;1.30;;;29.90;61.40;;;;;;5077558;28;20058;-90
2022/07/06 07:30:07;;;;;;;4.88;1.10;;;30.30;58.20;;;;;;5058678;28;20044;-88
2022/07/06 07:32:36;;;;;;;3.30;1.40;;;30.40;57.70;;;;;;5080222;28;20598;-90
2022/07/06 07:35:04;;;;;;;2.05;1.00;;;30.70;56.30;;;;;;5077798;28;20139;-87
2022/07/06 07:37:31;;;;;;;8.95;2.08;;;30.10;55.90;;;;;;5078157;28;20033;-88
2022/07/06 07:39:59;;;;;;;4.35;1.10;;;29.80;58.50;;;;;;5077657;28;20109;-88
2022/07/06 07:42:27;;;;;;;2.80;1.13;;;30.10;59.00;;;;;;5077506;28;20056;-90
2022/07/06 07:44:55;;;;;;;2.80;1.10;;;30.20;58.80;;;;;;5064164;28;20139;-90
2022/07/06 07:47:22;;;;;;;2.92;1.30;;;30.90;57.10;;;;;;5074896;28;20528;-88
2022/07/06 07:49:52;;;;;;;3.78;1.23;;;31.20;56.30;;;;;;5077923;28;20111;-86
2022/07/06 07:52:20;;;;;;;4.15;2.35;;;30.60;55.80;;;;;;5079749;28;20041;-89
2022/07/06 07:54:47;;;;;;;2.70;1.50;;;29.50;57.60;;;;;;5074941;28;20045;-90
2022/07/06 07:57:15;;;;;;;3.70;1.83;;;28.30;60.80;;;;;;5076355;28;20139;-88
2022/07/06 07:59:42;;;;;;;5.35;1.75;;;27.30;60.70;;;;;;5057375;28;20060;-86
2022/07/06 08:02:10;;;;;;;4.40;1.73;;;26.60;62.40;;;;;;5075037;28;20044;-87
2022/07/06 08:04:37;;;;;;;3.35;1.58;;;27.20;63.80;;;;;;5073426;28;20420;-88
2022/07/06 08:07:07;;;;;;;8.63;1.48;;;28.50;60.10;;;;;;5076435;28;20051;-86
2022/07/06 08:09:34;;;;;;;5.45;1.35;;;29.80;59.00;;;;;;5074344;28;20139;-88
2022/07/06 08:12:02;;;;;;;5.57;1.60;;;30.60;57.20;;;;;;5055891;28;20455;-88
2022/07/06 08:14:29;;;;;;;16.70;2.17;;;30.60;56.80;;;;;;5073679;28;20056;-88
2022/07/06 08:16:57;;;;;;;2.83;1.50;;;31.10;55.50;;;;;;5055482;28;20056;-88
2022/07/06 08:19:24;;;;;;;1.73;1.17;;;30.90;54.40;;;;;;5056988;28;20041;-87
2022/07/06 08:21:52;;;;;;;3.28;2.20;;;30.40;54.90;;;;;;5074834;28;20052;-83
2022/07/06 08:24:21;;;;;;;3.38;1.00;;;29.50;56.30;;;;;;5066166;28;20048;-78
2022/07/06 08:26:49;;;;;;;2.78;1.20;;;29.20;58.30;;;;;;5051965;28;20178;-78
2022/07/06 08:29:17;;;;;;;5.95;1.38;;;29.40;57.70;;;;;;5070225;28;20481;-76
2022/07/06 08:31:44;;;;;;;11.75;2.17;;;29.90;55.50;;;;;;5066721;28;20148;-81
2022/07/06 08:34:12;;;;;;;8.52;1.38;;;29.70;54.80;;;;;;5068601;28;20783;-82
2022/07/06 08:36:40;;;;;;;2.50;1.10;;;28.60;56.20;;;;;;5068669;28;20588;-80
2022/07/06 08:39:07;;;;;;;9.07;2.40;;;27.80;57.70;;;;;;5069438;28;20072;-81
2022/07/06 08:41:39;;;;;;;2.20;1.00;;;28.20;58.80;;;;;;5064820;28;20143;-79
2022/07/06 08:44:08;;;;;;;5.78;1.20;;;28.40;58.50;;;;;;5051234;28;20045;-79
2022/07/06 08:46:38;;;;;;;4.32;1.27;;;28.60;58.20;;;;;;5067073;28;20446;-79
2022/07/06 08:49:07;;;;;;;8.25;1.77;;;29.10;59.40;;;;;;5068787;28;20044;-78
2022/07/06 08:51:36;;;;;;;4.50;1.20;;;28.90;59.10;;;;;;5046991;28;20124;-77
2022/07/06 08:54:04;;;;;;;7.50;1.10;;;28.50;59.00;;;;;;5050688;28;20098;-80
2022/07/06 08:56:32;;;;;;;3.28;1.00;;;27.80;58.90;;;;;;5068385;28;20033;-79
2022/07/06 08:59:01;;;;;;;4.72;1.35;;;27.20;60.00;;;;;;5066112;28;20565;-79
2022/07/06 09:01:29;;;;;;;3.42;1.70;;;26.60;62.60;;;;;;5067490;28;20041;-78
2022/07/06 09:03:58;;;;;;;2.22;1.33;;;26.10;64.20;;;;;;5068168;28;20492;-80
2022/07/06 09:06:27;;;;;;;6.07;1.10;;;25.70;65.80;;;;;;5067692;28;20044;-79
2022/07/06 09:08:56;;;;;;;6.15;2.03;;;25.40;65.80;;;;;;5065234;28;20048;-80
2022/07/06 09:11:25;;;;;;;4.00;1.50;;;25.20;65.20;;;;;;5068280;28;20411;-77
2022/07/06 09:13:53;;;;;;;5.10;1.30;;;25.10;66.00;;;;;;5069187;28;20535;-80
2022/07/06 09:16:28;;;;;;;9.30;1.50;;;24.90;66.60;;;;;;5052787;28;20102;-80
2022/07/06 09:18:56;;;;;;;2.45;1.13;;;24.70;64.30;;;;;;5074044;28;20057;-78
2022/07/06 09:21:25;;;;;;;4.00;1.48;;;24.80;64.40;;;;;;5073716;28;20148;-79
2022/07/06 09:23:55;;;;;;;3.17;1.30;;;26.30;62.30;;;;;;5052248;28;20133;-79
2022/07/06 09:26:24;;;;;;;5.13;1.60;;;28.10;59.60;;;;;;5071382;28;20398;-79
2022/07/06 09:28:52;;;;;;;4.00;1.20;;;29.70;56.30;;;;;;5053477;28;20076;-80
2022/07/06 09:31:21;;;;;;;17.95;2.58;;;31.10;56.60;;;;;;5053730;28;20054;-79
2022/07/06 09:33:59;;;;;;;8.10;2.03;;;32.50;52.20;;;;;;5070764;28;20458;-80
2022/07/06 09:36:42;;;;;;;5.88;1.10;;;33.60;50.50;;;;;;5036674;28;20053;-80
2022/07/06 09:39:20;;;;;;;6.07;0.93;;;34.60;47.40;;;;;;5073360;28;20509;-79
2022/07/06 09:41:47;;;;;;;7.55;1.63;;;35.20;46.50;;;;;;5035834;28;20105;-80
2022/07/06 09:44:21;;;;;;;5.32;1.58;;;35.50;45.60;;;;;;5072354;28;20070;-80
2022/07/06 09:46:50;;;;;;;5.57;1.45;;;35.10;44.40;;;;;;5071639;28;20106;-80
2022/07/06 09:49:22;;;;;;;5.63;1.48;;;33.50;46.70;;;;;;5073835;28;20082;-82
2022/07/06 09:51:52;;;;;;;4.57;1.20;;;33.60;47.00;;;;;;5036702;28;20044;-80
2022/07/06 09:54:20;;;;;;;2.67;1.30;;;34.50;46.10;;;;;;5071082;28;20044;-80
2022/07/06 09:56:50;;;;;;;2.90;1.58;;;35.00;45.60;;;;;;5037723;28;20052;-80
2022/07/06 09:59:21;;;;;;;6.50;1.52;;;34.90;46.10;;;;;;5072656;28;20051;-81
2022/07/06 10:01:54;;;;;;;3.88;1.50;;;34.70;46.50;;;;;;5073723;28;20147;-80
2022/07/06 10:04:22;;;;;;;4.75;1.00;;;35.00;45.50;;;;;;5073678;28;20059;-80
2022/07/06 10:06:50;;;;;;;2.50;1.27;;;35.20;45.00;;;;;;5073711;28;20131;-81
2022/07/06 10:09:20;;;;;;;3.90;0.93;;;35.60;44.80;;;;;;5054411;28;20055;-79
2022/07/06 10:11:51;;;;;;;1.77;1.17;;;36.10;44.20;;;;;;5054672;28;20045;-79
2022/07/06 10:14:22;;;;;;;;;;;35.90;43.30;;;;;;5055211;28;20056;-80
2022/07/06 10:16:52;;;;;;;3.30;1.20;;;35.50;43.50;;;;;;5072682;28;20019;-80
2022/07/06 10:19:22;;;;;;;3.95;1.25;;;34.60;44.60;;;;;;5072341;28;20052;-80
2022/07/06 10:21:51;;;;;;;2.40;1.10;;;33.70;44.70;;;;;;5072625;28;20048;-79
2022/07/06 10:24:20;;;;;;;4.07;1.00;;;32.90;46.50;;;;;;5038057;28;20463;-79
2022/07/06 10:26:49;;;;;;;5.32;0.85;;;33.50;45.70;;;;;;5072036;28;20052;-79
2022/07/06 10:29:17;;;;;;;2.33;0.90;;;34.40;45.30;;;;;;5072836;28;20512;-80
2022/07/06 10:31:46;;;;;;;2.33;0.98;;;35.10;44.70;;;;;;5072981;28;20496;-79
2022/07/06 10:34:19;;;;;;;3.35;1.00;;;35.80;43.50;;;;;;5073513;28;20056;-80
2022/07/06 10:36:51;;;;;;;1.27;1.13;;;36.50;42.50;;;;;;5072123;28;20128;-79
2022/07/06 10:42:46;;;;;;;2.35;0.70;;;36.50;42.90;;;;;;5037303;28;20075;-80
2022/07/06 10:45:16;;;;;;;1.92;1.60;;;35.00;43.90;;;;;;5036356;28;20052;-80
2022/07/06 10:47:43;;;;;;;6.70;0.80;;;35.10;45.40;;;;;;5071929;28;20390;-80
2022/07/06 10:50:13;;;;;;;4.13;0.90;;;34.90;43.30;;;;;;5054190;28;20044;-80
2022/07/06 10:52:51;;;;;;;6.00;1.08;;;34.60;43.00;;;;;;5071852;28;20047;-79
2022/07/06 10:55:30;;;;;;;5.97;2.25;;;33.10;44.60;;;;;;5070804;28;20508;-79
2022/07/06 10:57:58;;;;;;;6.07;1.23;;;31.50;46.60;;;;;;5071657;28;20125;-79
2022/07/06 11:00:25;;;;;;;6.72;1.40;;;29.90;48.90;;;;;;5071948;28;20078;-80
2022/07/06 11:02:53;;;;;;;2.10;1.33;;;29.30;51.10;;;;;;5053061;28;20048;-80
2022/07/06 11:05:44;;;;;;;4.00;1.02;;;30.00;50.70;;;;;;5072447;28;20488;-80
2022/07/06 11:08:11;;;;;;;2.80;1.02;;;29.90;50.80;;;;;;5071992;28;20052;-81
2022/07/06 11:10:48;;;;;;;5.50;1.00;;;29.60;51.30;;;;;;5071269;28;20436;-81
2022/07/06 11:13:31;;;;;;;4.13;1.75;;;30.70;51.30;;;;;;5070707;28;20048;-80
2022/07/06 11:16:03;;;;;;;2.35;0.85;;;32.90;48.30;;;;;;5070624;28;20049;-80
2022/07/06 11:18:39;;;;;;;;;;;34.70;45.60;;;;;;5071772;28;20113;-79
2022/07/06 11:21:23;;;;;;;3.40;1.23;;;35.70;44.00;;;;;;5070130;28;20315;-80
2022/07/06 11:23:51;;;;;;;3.05;0.90;;;34.90;44.60;;;;;;5072202;28;20060;-80
2022/07/06 11:26:19;;;;;;;2.80;1.08;;;33.60;46.40;;;;;;5071295;28;20040;-81
2022/07/06 11:28:48;;;;;;;4.03;1.13;;;33.90;47.40;;;;;;5053420;28;20083;-80
2022/07/06 11:31:16;;;;;;;4.05;1.10;;;34.80;44.50;;;;;;5070162;28;20080;-79
2022/07/06 11:33:47;;;;;;;4.88;1.05;;;35.10;43.30;;;;;;5070692;28;20082;-81
2022/07/06 11:36:17;;;;;;;4.60;1.08;;;34.30;44.20;;;;;;5071152;28;20087;-80
2022/07/06 11:38:47;;;;;;;2.20;0.88;;;33.10;45.30;;;;;;5051840;28;20040;-79
2022/07/06 11:41:16;;;;;;;4.22;1.25;;;31.60;46.90;;;;;;5052889;28;20083;-79
2022/07/06 11:43:45;;;;;;;4.25;0.90;;;30.90;49.50;;;;;;5071020;28;20076;-80
2022/07/06 11:46:36;;;;;;;5.35;1.20;;;31.40;48.50;;;;;;5071045;28;20048;-79
2022/07/06 11:49:06;;;;;;;5.28;0.88;;;32.10;49.40;;;;;;5064455;28;20060;-80
2022/07/06 11:51:36;;;;;;;2.15;1.10;;;31.40;48.20;;;;;;5070692;28;20044;-79
2022/07/06 11:54:10;;;;;;;2.30;1.00;;;30.10;50.20;;;;;;5071672;28;20082;-80
2022/07/06 11:56:38;;;;;;;2.70;1.20;;;28.80;51.40;;;;;;5070656;28;20080;-79
2022/07/06 11:59:05;;;;;;;3.47;0.88;;;27.90;52.70;;;;;;5050930;28;20049;-79
2022/07/06 12:01:33;;;;;;;9.15;1.67;;;27.50;54.50;;;;;;5031721;28;20052;-80
2022/07/06 12:04:03;;;;;;;10.70;1.55;;;27.30;54.30;;;;;;5049897;28;20147;-78
2022/07/06 12:06:31;;;;;;;4.45;1.10;;;26.90;55.10;;;;;;5022963;28;20549;-79
2022/07/06 12:09:03;;;;;;;5.32;1.50;;;26.60;56.00;;;;;;5070548;28;20454;-79
2022/07/06 12:11:34;;;;;;;5.82;1.58;;;27.20;56.60;;;;;;5053192;28;20056;-80
2022/07/06 12:14:13;;;;;;;1.92;1.05;;;28.10;54.50;;;;;;5053212;28;20420;-79
2022/07/06 12:16:41;;;;;;;7.35;1.10;;;28.40;53.50;;;;;;5069802;28;20053;-79
2022/07/06 12:19:11;;;;;;;4.22;1.00;;;28.30;53.60;;;;;;5070626;28;20049;-78
2022/07/06 12:21:44;;;;;;;5.63;1.48;;;28.10;54.50;;;;;;5052699;28;20398;-79
2022/07/06 12:24:17;;;;;;;6.05;0.90;;;27.70;54.70;;;;;;5069534;28;20048;-79
2022/07/06 12:26:46;;;;;;;4.70;1.10;;;27.30;55.40;;;;;;5036328;28;20503;-80
2022/07/06 12:29:14;;;;;;;3.10;1.00;;;26.90;55.80;;;;;;5052979;28;20564;-80
2022/07/06 12:31:44;;;;;;;3.30;0.90;;;26.60;56.30;;;;;;5052734;28;20476;-79
2022/07/06 12:34:16;;;;;;;2.67;1.10;;;26.50;57.30;;;;;;5051778;28;20075;-80
2022/07/06 12:36:45;;;;;;;1.17;0.65;;;26.30;57.90;;;;;;5035989;28;20467;-79
2022/07/06 12:39:14;;;;;;;3.47;1.40;;;26.10;58.00;;;;;;5052572;28;20048;-79
2022/07/06 12:41:49;;;;;;;3.83;0.77;;;26.10;58.30;;;;;;5035760;28;20049;-79
2022/07/06 12:44:19;;;;;;;3.00;1.17;;;26.20;58.40;;;;;;5069840;28;20060;-78
2022/07/06 12:46:48;;;;;;;3.40;1.17;;;26.20;58.60;;;;;;5052353;28;20060;-79
2022/07/06 12:49:18;;;;;;;1.80;1.35;;;26.20;58.00;;;;;;5070365;28;20056;-79
2022/07/06 12:51:55;;;;;;;5.15;1.00;;;26.00;58.70;;;;;;5037073;28;20051;-78
2022/07/06 12:54:23;;;;;;;5.05;1.38;;;25.80;59.10;;;;;;5074058;28;20052;-78
2022/07/06 12:57:05;;;;;;;6.60;1.90;;;25.80;59.60;;;;;;5056189;28;20044;-79
2022/07/06 12:59:35;;;;;;;7.75;1.85;;;25.80;60.50;;;;;;5073720;28;20121;-80
2022/07/06 13:02:04;;;;;;;10.43;1.60;;;26.00;60.30;;;;;;5055291;28;20049;-79
2022/07/06 13:04:32;;;;;;;6.85;1.35;;;26.10;59.80;;;;;;5074058;28;20056;-78